sensor_id;sensor_type;location;lat;lon;timestamp;P1;durP1;ratioP1;P2;durP2;ratioP2
5355;SDS011;70449;52.486;13.386;2023-08-01T00:02:01;8.03;;;4.57;;
5355;SDS011;70449;52.486;13.386;2023-08-01T00:04:29;13.00;;;4.20;;
5355;SDS011;70449;52.486;13.386;2023-08-01T00:06:56;12.17;;;4.43;;
5355;SDS011;70449;52.486;13.386;2023-08-01T00:09:24;6.40;;;3.93;;
5355;SDS011;70449;52.486;13.386;2023-08-01T00:11:52;7.73;;;3.87;;
5355;SDS011;70449;52.486;13.386;2023-08-01T00:14:19;10.70;;;3.90;;
5355;SDS011;70449;52.486;13.386;2023-08-01T00:16:49;5.50;;;4.50;;
5355;SDS011;70449;52.486;13.386;2023-08-01T00:19:16;17.37;;;4.90;;
5355;SDS011;70449;52.486;13.386;2023-08-01T00:21:44;11.83;;;4.07;;
5355;SDS011;70449;52.486;13.386;2023-08-01T00:24:12;12.03;;;5.00;;
5355;SDS011;70449;52.486;13.386;2023-08-01T00:26:40;11.13;;;4.00;;
5355;SDS011;70449;52.486;13.386;2023-08-01T00:29:07;7.43;;;3.90;;
5355;SDS011;70449;52.486;13.386;2023-08-01T00:31:35;6.23;;;4.07;;
5355;SDS011;70449;52.486;13.386;2023-08-01T00:34:02;5.90;;;2.80;;
5355;SDS011;70449;52.486;13.386;2023-08-01T00:36:29;4.30;;;3.13;;
5355;SDS011;70449;52.486;13.386;2023-08-01T00:38:57;5.57;;;3.30;;
5355;SDS011;70449;52.486;13.386;2023-08-01T00:41:24;5.60;;;2.80;;
5355;SDS011;70449;52.486;13.386;2023-08-01T00:43:53;6.73;;;3.50;;
5355;SDS011;70449;52.486;13.386;2023-08-01T00:46:20;6.80;;;3.00;;
5355;SDS011;70449;52.486;13.386;2023-08-01T00:48:48;4.90;;;2.97;;
5355;SDS011;70449;52.486;13.386;2023-08-01T00:51:16;4.33;;;3.30;;
5355;SDS011;70449;52.486;13.386;2023-08-01T00:53:44;14.67;;;3.50;;
5355;SDS011;70449;52.486;13.386;2023-08-01T00:56:12;3.20;;;2.50;;
5355;SDS011;70449;52.486;13.386;2023-08-01T00:58:39;3.97;;;2.73;;
5355;SDS011;70449;52.486;13.386;2023-08-01T01:01:08;5.83;;;3.07;;
5355;SDS011;70449;52.486;13.386;2023-08-01T01:03:35;9.40;;;3.00;;
5355;SDS011;70449;52.486;13.386;2023-08-01T01:06:06;3.70;;;2.93;;
5355;SDS011;70449;52.486;13.386;2023-08-01T01:08:42;10.83;;;3.50;;
5355;SDS011;70449;52.486;13.386;2023-08-01T01:11:09;6.10;;;3.20;;
5355;SDS011;70449;52.486;13.386;2023-08-01T01:13:36;3.70;;;3.30;;
5355;SDS011;70449;52.486;13.386;2023-08-01T01:16:03;5.70;;;3.23;;
5355;SDS011;70449;52.486;13.386;2023-08-01T01:18:32;4.80;;;3.10;;
5355;SDS011;70449;52.486;13.386;2023-08-01T01:21:01;4.30;;;2.97;;
5355;SDS011;70449;52.486;13.386;2023-08-01T01:23:29;6.07;;;3.67;;
5355;SDS011;70449;52.486;13.386;2023-08-01T01:25:58;10.53;;;4.43;;
5355;SDS011;70449;52.486;13.386;2023-08-01T01:28:26;6.90;;;4.70;;
5355;SDS011;70449;52.486;13.386;2023-08-01T01:30:54;6.00;;;3.63;;
5355;SDS011;70449;52.486;13.386;2023-08-01T01:33:22;8.53;;;3.80;;
5355;SDS011;70449;52.486;13.386;2023-08-01T01:35:50;9.50;;;3.93;;
5355;SDS011;70449;52.486;13.386;2023-08-01T01:38:18;4.20;;;3.33;;
5355;SDS011;70449;52.486;13.386;2023-08-01T01:40:45;6.83;;;3.43;;
5355;SDS011;70449;52.486;13.386;2023-08-01T01:43:12;4.53;;;3.63;;
5355;SDS011;70449;52.486;13.386;2023-08-01T01:45:39;8.20;;;3.57;;
5355;SDS011;70449;52.486;13.386;2023-08-01T01:48:07;15.33;;;3.87;;
5355;SDS011;70449;52.486;13.386;2023-08-01T01:50:34;9.77;;;4.43;;
5355;SDS011;70449;52.486;13.386;2023-08-01T01:53:01;5.70;;;3.83;;
5355;SDS011;70449;52.486;13.386;2023-08-01T01:55:30;10.43;;;4.43;;
5355;SDS011;70449;52.486;13.386;2023-08-01T01:57:57;18.97;;;4.37;;
5355;SDS011;70449;52.486;13.386;2023-08-01T02:00:24;12.23;;;5.73;;
5355;SDS011;70449;52.486;13.386;2023-08-01T02:02:51;5.23;;;3.87;;
5355;SDS011;70449;52.486;13.386;2023-08-01T02:05:18;7.33;;;4.67;;
5355;SDS011;70449;52.486;13.386;2023-08-01T02:07:46;13.90;;;4.80;;
5355;SDS011;70449;52.486;13.386;2023-08-01T02:10:13;5.33;;;3.83;;
5355;SDS011;70449;52.486;13.386;2023-08-01T02:12:41;8.37;;;4.23;;
5355;SDS011;70449;52.486;13.386;2023-08-01T02:15:08;6.67;;;4.43;;
5355;SDS011;70449;52.486;13.386;2023-08-01T02:17:36;5.20;;;4.13;;
5355;SDS011;70449;52.486;13.386;2023-08-01T02:20:03;7.33;;;4.70;;
5355;SDS011;70449;52.486;13.386;2023-08-01T02:22:32;6.83;;;4.40;;
5355;SDS011;70449;52.486;13.386;2023-08-01T02:24:59;6.37;;;4.87;;
5355;SDS011;70449;52.486;13.386;2023-08-01T02:27:26;5.90;;;3.77;;
5355;SDS011;70449;52.486;13.386;2023-08-01T02:29:57;10.27;;;4.27;;
5355;SDS011;70449;52.486;13.386;2023-08-01T02:32:25;11.67;;;6.13;;
5355;SDS011;70449;52.486;13.386;2023-08-01T02:34:52;7.10;;;5.00;;
5355;SDS011;70449;52.486;13.386;2023-08-01T02:37:19;11.60;;;4.90;;
5355;SDS011;70449;52.486;13.386;2023-08-01T02:39:46;6.60;;;5.17;;
5355;SDS011;70449;52.486;13.386;2023-08-01T02:42:13;9.93;;;5.27;;
5355;SDS011;70449;52.486;13.386;2023-08-01T02:44:41;10.37;;;4.63;;
5355;SDS011;70449;52.486;13.386;2023-08-01T02:47:09;7.90;;;4.60;;
5355;SDS011;70449;52.486;13.386;2023-08-01T02:49:36;11.73;;;4.50;;
5355;SDS011;70449;52.486;13.386;2023-08-01T02:52:04;9.30;;;4.30;;
5355;SDS011;70449;52.486;13.386;2023-08-01T02:54:31;11.17;;;5.67;;
5355;SDS011;70449;52.486;13.386;2023-08-01T02:56:59;11.83;;;4.47;;
5355;SDS011;70449;52.486;13.386;2023-08-01T02:59:26;6.57;;;4.50;;
5355;SDS011;70449;52.486;13.386;2023-08-01T03:01:53;10.67;;;4.70;;
5355;SDS011;70449;52.486;13.386;2023-08-01T03:04:21;15.27;;;4.80;;
5355;SDS011;70449;52.486;13.386;2023-08-01T03:06:49;9.90;;;4.37;;
5355;SDS011;70449;52.486;13.386;2023-08-01T03:09:16;9.37;;;4.93;;
5355;SDS011;70449;52.486;13.386;2023-08-01T03:11:43;13.40;;;4.83;;
5355;SDS011;70449;52.486;13.386;2023-08-01T03:14:10;8.53;;;4.97;;
5355;SDS011;70449;52.486;13.386;2023-08-01T03:16:37;9.60;;;4.47;;
5355;SDS011;70449;52.486;13.386;2023-08-01T03:19:06;12.10;;;5.40;;
5355;SDS011;70449;52.486;13.386;2023-08-01T03:21:35;10.80;;;5.10;;
5355;SDS011;70449;52.486;13.386;2023-08-01T03:24:03;6.97;;;4.60;;
5355;SDS011;70449;52.486;13.386;2023-08-01T03:26:33;7.33;;;4.37;;
5355;SDS011;70449;52.486;13.386;2023-08-01T03:29:00;6.20;;;4.53;;
5355;SDS011;70449;52.486;13.386;2023-08-01T03:31:28;7.03;;;4.40;;
5355;SDS011;70449;52.486;13.386;2023-08-01T03:33:55;5.23;;;3.63;;
5355;SDS011;70449;52.486;13.386;2023-08-01T03:36:23;6.63;;;3.70;;
5355;SDS011;70449;52.486;13.386;2023-08-01T03:38:54;7.07;;;4.00;;
5355;SDS011;70449;52.486;13.386;2023-08-01T03:41:22;7.33;;;4.70;;
5355;SDS011;70449;52.486;13.386;2023-08-01T03:43:49;6.30;;;3.73;;
5355;SDS011;70449;52.486;13.386;2023-08-01T03:46:16;16.80;;;4.57;;
5355;SDS011;70449;52.486;13.386;2023-08-01T03:48:44;8.47;;;4.13;;
5355;SDS011;70449;52.486;13.386;2023-08-01T03:51:11;5.80;;;4.20;;
5355;SDS011;70449;52.486;13.386;2023-08-01T03:53:40;7.10;;;4.57;;
5355;SDS011;70449;52.486;13.386;2023-08-01T03:56:08;7.30;;;4.70;;
5355;SDS011;70449;52.486;13.386;2023-08-01T03:58:36;13.83;;;4.47;;
5355;SDS011;70449;52.486;13.386;2023-08-01T04:01:03;9.00;;;4.20;;
5355;SDS011;70449;52.486;13.386;2023-08-01T04:03:31;9.97;;;3.90;;
5355;SDS011;70449;52.486;13.386;2023-08-01T04:05:58;15.27;;;4.47;;
5355;SDS011;70449;52.486;13.386;2023-08-01T04:08:25;9.60;;;4.30;;
5355;SDS011;70449;52.486;13.386;2023-08-01T04:10:53;5.07;;;3.77;;
5355;SDS011;70449;52.486;13.386;2023-08-01T04:13:21;7.43;;;3.83;;
5355;SDS011;70449;52.486;13.386;2023-08-01T04:15:48;7.50;;;4.50;;
5355;SDS011;70449;52.486;13.386;2023-08-01T04:18:15;5.23;;;3.53;;
5355;SDS011;70449;52.486;13.386;2023-08-01T04:20:43;13.43;;;3.97;;
5355;SDS011;70449;52.486;13.386;2023-08-01T04:23:10;12.33;;;4.03;;
5355;SDS011;70449;52.486;13.386;2023-08-01T04:25:39;8.87;;;4.03;;
5355;SDS011;70449;52.486;13.386;2023-08-01T04:28:07;8.50;;;4.50;;
5355;SDS011;70449;52.486;13.386;2023-08-01T04:30:35;3.93;;;3.50;;
5355;SDS011;70449;52.486;13.386;2023-08-01T04:33:03;7.20;;;3.80;;
5355;SDS011;70449;52.486;13.386;2023-08-01T04:35:30;6.20;;;3.70;;
5355;SDS011;70449;52.486;13.386;2023-08-01T04:37:59;8.30;;;3.70;;
5355;SDS011;70449;52.486;13.386;2023-08-01T04:40:26;8.37;;;4.07;;
5355;SDS011;70449;52.486;13.386;2023-08-01T04:42:53;4.53;;;4.03;;
5355;SDS011;70449;52.486;13.386;2023-08-01T04:45:21;8.63;;;4.00;;
5355;SDS011;70449;52.486;13.386;2023-08-01T04:47:51;8.43;;;3.97;;
5355;SDS011;70449;52.486;13.386;2023-08-01T04:50:18;8.83;;;4.23;;
5355;SDS011;70449;52.486;13.386;2023-08-01T04:52:45;4.60;;;3.57;;
5355;SDS011;70449;52.486;13.386;2023-08-01T04:55:12;6.83;;;3.97;;
5355;SDS011;70449;52.486;13.386;2023-08-01T04:57:40;4.73;;;3.43;;
5355;SDS011;70449;52.486;13.386;2023-08-01T05:00:10;8.23;;;3.80;;
5355;SDS011;70449;52.486;13.386;2023-08-01T05:02:38;10.10;;;3.80;;
5355;SDS011;70449;52.486;13.386;2023-08-01T05:05:10;7.20;;;4.70;;
5355;SDS011;70449;52.486;13.386;2023-08-01T05:07:37;6.33;;;4.20;;
5355;SDS011;70449;52.486;13.386;2023-08-01T05:10:04;8.77;;;4.23;;
5355;SDS011;70449;52.486;13.386;2023-08-01T05:12:32;7.60;;;4.57;;
5355;SDS011;70449;52.486;13.386;2023-08-01T05:15:00;7.17;;;4.00;;
5355;SDS011;70449;52.486;13.386;2023-08-01T05:17:28;6.83;;;3.73;;
5355;SDS011;70449;52.486;13.386;2023-08-01T05:19:56;6.40;;;4.10;;
5355;SDS011;70449;52.486;13.386;2023-08-01T05:22:24;8.10;;;4.57;;
5355;SDS011;70449;52.486;13.386;2023-08-01T05:24:51;6.73;;;4.00;;
5355;SDS011;70449;52.486;13.386;2023-08-01T05:27:19;4.40;;;3.37;;
5355;SDS011;70449;52.486;13.386;2023-08-01T05:29:46;10.13;;;4.00;;
5355;SDS011;70449;52.486;13.386;2023-08-01T05:32:13;4.70;;;3.30;;
5355;SDS011;70449;52.486;13.386;2023-08-01T05:34:40;6.10;;;4.13;;
5355;SDS011;70449;52.486;13.386;2023-08-01T05:37:08;5.77;;;3.90;;
5355;SDS011;70449;52.486;13.386;2023-08-01T05:39:36;8.13;;;4.50;;
5355;SDS011;70449;52.486;13.386;2023-08-01T05:42:04;6.27;;;3.47;;
5355;SDS011;70449;52.486;13.386;2023-08-01T05:44:33;5.90;;;4.30;;
5355;SDS011;70449;52.486;13.386;2023-08-01T05:47:01;6.40;;;4.50;;
5355;SDS011;70449;52.486;13.386;2023-08-01T05:49:28;5.30;;;3.77;;
5355;SDS011;70449;52.486;13.386;2023-08-01T05:51:55;7.90;;;3.40;;
5355;SDS011;70449;52.486;13.386;2023-08-01T05:54:23;6.40;;;4.27;;
5355;SDS011;70449;52.486;13.386;2023-08-01T05:56:51;6.50;;;3.17;;
5355;SDS011;70449;52.486;13.386;2023-08-01T05:59:20;4.23;;;3.50;;
5355;SDS011;70449;52.486;13.386;2023-08-01T06:01:47;9.10;;;4.27;;
5355;SDS011;70449;52.486;13.386;2023-08-01T06:04:15;6.30;;;3.87;;
5355;SDS011;70449;52.486;13.386;2023-08-01T06:06:46;5.70;;;3.93;;
5355;SDS011;70449;52.486;13.386;2023-08-01T06:09:13;3.53;;;3.10;;
5355;SDS011;70449;52.486;13.386;2023-08-01T06:11:40;11.80;;;3.77;;
5355;SDS011;70449;52.486;13.386;2023-08-01T06:14:10;8.27;;;4.47;;
5355;SDS011;70449;52.486;13.386;2023-08-01T06:16:37;9.50;;;3.50;;
5355;SDS011;70449;52.486;13.386;2023-08-01T06:19:04;8.60;;;3.93;;
5355;SDS011;70449;52.486;13.386;2023-08-01T06:21:31;6.03;;;3.17;;
5355;SDS011;70449;52.486;13.386;2023-08-01T06:23:59;5.70;;;3.57;;
5355;SDS011;70449;52.486;13.386;2023-08-01T06:26:26;14.23;;;3.70;;
5355;SDS011;70449;52.486;13.386;2023-08-01T06:28:54;5.70;;;3.67;;
5355;SDS011;70449;52.486;13.386;2023-08-01T06:31:22;4.33;;;2.90;;
5355;SDS011;70449;52.486;13.386;2023-08-01T06:33:50;5.20;;;3.33;;
5355;SDS011;70449;52.486;13.386;2023-08-01T06:36:17;16.83;;;4.00;;
5355;SDS011;70449;52.486;13.386;2023-08-01T06:38:44;4.53;;;3.40;;
5355;SDS011;70449;52.486;13.386;2023-08-01T06:41:11;7.53;;;3.20;;
5355;SDS011;70449;52.486;13.386;2023-08-01T06:43:39;6.47;;;3.40;;
5355;SDS011;70449;52.486;13.386;2023-08-01T06:46:06;8.53;;;3.93;;
5355;SDS011;70449;52.486;13.386;2023-08-01T06:48:34;6.20;;;4.13;;
5355;SDS011;70449;52.486;13.386;2023-08-01T06:51:01;4.17;;;3.60;;
5355;SDS011;70449;52.486;13.386;2023-08-01T06:53:29;6.63;;;3.70;;
5355;SDS011;70449;52.486;13.386;2023-08-01T06:55:56;6.53;;;3.60;;
5355;SDS011;70449;52.486;13.386;2023-08-01T06:58:24;5.60;;;3.60;;
5355;SDS011;70449;52.486;13.386;2023-08-01T07:00:55;5.20;;;3.40;;
5355;SDS011;70449;52.486;13.386;2023-08-01T07:03:23;4.87;;;3.47;;
5355;SDS011;70449;52.486;13.386;2023-08-01T07:05:54;4.20;;;3.53;;
5355;SDS011;70449;52.486;13.386;2023-08-01T07:08:21;6.90;;;3.20;;
5355;SDS011;70449;52.486;13.386;2023-08-01T07:10:49;5.20;;;3.20;;
5355;SDS011;70449;52.486;13.386;2023-08-01T07:13:16;4.43;;;3.50;;
5355;SDS011;70449;52.486;13.386;2023-08-01T07:15:44;5.50;;;3.37;;
5355;SDS011;70449;52.486;13.386;2023-08-01T07:18:12;3.50;;;2.50;;
5355;SDS011;70449;52.486;13.386;2023-08-01T07:20:39;5.80;;;3.30;;
5355;SDS011;70449;52.486;13.386;2023-08-01T07:23:07;6.63;;;2.80;;
5355;SDS011;70449;52.486;13.386;2023-08-01T07:25:34;11.47;;;6.10;;
5355;SDS011;70449;52.486;13.386;2023-08-01T07:28:02;13.10;;;3.73;;
5355;SDS011;70449;52.486;13.386;2023-08-01T07:30:29;5.93;;;2.90;;
5355;SDS011;70449;52.486;13.386;2023-08-01T07:32:56;4.93;;;3.37;;
5355;SDS011;70449;52.486;13.386;2023-08-01T07:35:23;4.37;;;2.87;;
5355;SDS011;70449;52.486;13.386;2023-08-01T07:37:51;7.83;;;2.87;;
5355;SDS011;70449;52.486;13.386;2023-08-01T07:40:19;5.77;;;2.70;;
5355;SDS011;70449;52.486;13.386;2023-08-01T07:42:46;6.63;;;3.23;;
5355;SDS011;70449;52.486;13.386;2023-08-01T07:45:14;5.57;;;3.40;;
5355;SDS011;70449;52.486;13.386;2023-08-01T07:47:41;5.20;;;2.73;;
5355;SDS011;70449;52.486;13.386;2023-08-01T07:50:08;4.83;;;3.47;;
5355;SDS011;70449;52.486;13.386;2023-08-01T07:52:36;4.40;;;3.13;;
5355;SDS011;70449;52.486;13.386;2023-08-01T07:55:04;5.40;;;3.03;;
5355;SDS011;70449;52.486;13.386;2023-08-01T07:57:35;2.80;;;2.33;;
5355;SDS011;70449;52.486;13.386;2023-08-01T08:00:02;3.60;;;2.70;;
5355;SDS011;70449;52.486;13.386;2023-08-01T08:02:31;4.93;;;2.77;;
5355;SDS011;70449;52.486;13.386;2023-08-01T08:04:59;4.43;;;2.50;;
5355;SDS011;70449;52.486;13.386;2023-08-01T08:07:26;4.60;;;2.90;;
5355;SDS011;70449;52.486;13.386;2023-08-01T08:09:53;5.00;;;3.07;;
5355;SDS011;70449;52.486;13.386;2023-08-01T08:12:21;4.20;;;2.60;;
5355;SDS011;70449;52.486;13.386;2023-08-01T08:14:50;3.10;;;2.13;;
5355;SDS011;70449;52.486;13.386;2023-08-01T08:17:17;10.67;;;2.57;;
5355;SDS011;70449;52.486;13.386;2023-08-01T08:19:44;3.60;;;2.70;;
5355;SDS011;70449;52.486;13.386;2023-08-01T08:22:13;2.47;;;2.27;;
5355;SDS011;70449;52.486;13.386;2023-08-01T08:24:41;4.67;;;2.40;;
5355;SDS011;70449;52.486;13.386;2023-08-01T08:27:08;16.23;;;2.00;;
5355;SDS011;70449;52.486;13.386;2023-08-01T08:29:35;4.90;;;2.20;;
5355;SDS011;70449;52.486;13.386;2023-08-01T08:32:04;3.10;;;2.30;;
5355;SDS011;70449;52.486;13.386;2023-08-01T08:34:33;2.87;;;2.10;;
5355;SDS011;70449;52.486;13.386;2023-08-01T08:37:01;2.80;;;2.40;;
5355;SDS011;70449;52.486;13.386;2023-08-01T08:39:28;2.10;;;1.90;;
5355;SDS011;70449;52.486;13.386;2023-08-01T08:41:55;10.33;;;2.07;;
5355;SDS011;70449;52.486;13.386;2023-08-01T08:44:23;2.23;;;2.03;;
5355;SDS011;70449;52.486;13.386;2023-08-01T08:46:54;2.10;;;1.70;;
5355;SDS011;70449;52.486;13.386;2023-08-01T08:49:25;10.63;;;1.80;;
5355;SDS011;70449;52.486;13.386;2023-08-01T08:51:54;2.00;;;1.80;;
5355;SDS011;70449;52.486;13.386;2023-08-01T08:54:22;5.93;;;1.93;;
5355;SDS011;70449;52.486;13.386;2023-08-01T08:56:50;4.80;;;2.33;;
5355;SDS011;70449;52.486;13.386;2023-08-01T08:59:20;3.13;;;2.00;;
5355;SDS011;70449;52.486;13.386;2023-08-01T09:01:49;3.50;;;1.97;;
5355;SDS011;70449;52.486;13.386;2023-08-01T09:04:16;2.00;;;1.47;;
5355;SDS011;70449;52.486;13.386;2023-08-01T09:06:46;2.20;;;1.80;;
5355;SDS011;70449;52.486;13.386;2023-08-01T09:09:20;5.50;;;1.80;;
5355;SDS011;70449;52.486;13.386;2023-08-01T09:11:49;2.43;;;1.90;;
5355;SDS011;70449;52.486;13.386;2023-08-01T09:14:18;2.40;;;1.97;;
5355;SDS011;70449;52.486;13.386;2023-08-01T09:16:46;2.17;;;1.70;;
5355;SDS011;70449;52.486;13.386;2023-08-01T09:19:16;2.20;;;2.00;;
5355;SDS011;70449;52.486;13.386;2023-08-01T09:21:53;2.00;;;1.60;;
5355;SDS011;70449;52.486;13.386;2023-08-01T09:24:21;2.30;;;1.90;;
5355;SDS011;70449;52.486;13.386;2023-08-01T09:26:49;1.87;;;1.70;;
5355;SDS011;70449;52.486;13.386;2023-08-01T09:29:16;1.30;;;1.20;;
5355;SDS011;70449;52.486;13.386;2023-08-01T09:31:47;1.83;;;1.40;;
5355;SDS011;70449;52.486;13.386;2023-08-01T09:34:18;2.30;;;1.53;;
5355;SDS011;70449;52.486;13.386;2023-08-01T09:36:47;1.53;;;1.10;;
5355;SDS011;70449;52.486;13.386;2023-08-01T09:39:17;1.43;;;1.33;;
5355;SDS011;70449;52.486;13.386;2023-08-01T09:41:45;4.43;;;1.30;;
5355;SDS011;70449;52.486;13.386;2023-08-01T09:44:20;2.27;;;1.50;;
5355;SDS011;70449;52.486;13.386;2023-08-01T09:46:54;3.47;;;1.40;;
5355;SDS011;70449;52.486;13.386;2023-08-01T09:49:23;1.70;;;1.27;;
5355;SDS011;70449;52.486;13.386;2023-08-01T09:51:51;5.03;;;1.20;;
5355;SDS011;70449;52.486;13.386;2023-08-01T09:54:21;1.57;;;1.13;;
5355;SDS011;70449;52.486;13.386;2023-08-01T09:56:49;1.40;;;1.30;;
5355;SDS011;70449;52.486;13.386;2023-08-01T09:59:20;1.40;;;1.23;;
5355;SDS011;70449;52.486;13.386;2023-08-01T10:01:50;1.40;;;1.30;;
5355;SDS011;70449;52.486;13.386;2023-08-01T10:04:19;1.30;;;1.20;;
5355;SDS011;70449;52.486;13.386;2023-08-01T10:06:51;1.47;;;1.37;;
5355;SDS011;70449;52.486;13.386;2023-08-01T10:09:25;1.33;;;1.00;;
5355;SDS011;70449;52.486;13.386;2023-08-01T10:11:53;4.60;;;1.10;;
5355;SDS011;70449;52.486;13.386;2023-08-01T10:14:24;1.80;;;1.50;;
5355;SDS011;70449;52.486;13.386;2023-08-01T10:16:52;1.33;;;1.23;;
5355;SDS011;70449;52.486;13.386;2023-08-01T10:19:21;1.20;;;1.00;;
5355;SDS011;70449;52.486;13.386;2023-08-01T10:21:48;1.33;;;1.10;;
5355;SDS011;70449;52.486;13.386;2023-08-01T10:24:16;1.20;;;1.10;;
5355;SDS011;70449;52.486;13.386;2023-08-01T10:26:51;4.87;;;1.43;;
5355;SDS011;70449;52.486;13.386;2023-08-01T10:29:18;2.70;;;0.90;;
5355;SDS011;70449;52.486;13.386;2023-08-01T10:31:52;13.23;;;1.20;;
5355;SDS011;70449;52.486;13.386;2023-08-01T10:34:20;1.10;;;1.00;;
5355;SDS011;70449;52.486;13.386;2023-08-01T10:36:53;1.30;;;1.20;;
5355;SDS011;70449;52.486;13.386;2023-08-01T10:39:21;4.17;;;1.20;;
5355;SDS011;70449;52.486;13.386;2023-08-01T10:41:57;1.13;;;1.03;;
5355;SDS011;70449;52.486;13.386;2023-08-01T10:44:27;1.33;;;1.00;;
5355;SDS011;70449;52.486;13.386;2023-08-01T10:46:56;1.40;;;1.30;;
5355;SDS011;70449;52.486;13.386;2023-08-01T10:49:33;2.60;;;0.87;;
5355;SDS011;70449;52.486;13.386;2023-08-01T10:52:03;2.33;;;1.20;;
5355;SDS011;70449;52.486;13.386;2023-08-01T10:54:43;1.53;;;1.33;;
5355;SDS011;70449;52.486;13.386;2023-08-01T10:57:16;1.80;;;1.40;;
5355;SDS011;70449;52.486;13.386;2023-08-01T10:59:44;1.53;;;1.43;;
5355;SDS011;70449;52.486;13.386;2023-08-01T11:02:18;5.23;;;1.57;;
5355;SDS011;70449;52.486;13.386;2023-08-01T11:04:57;2.80;;;1.80;;
5355;SDS011;70449;52.486;13.386;2023-08-01T11:07:26;1.93;;;1.30;;
5355;SDS011;70449;52.486;13.386;2023-08-01T11:10:08;2.50;;;1.43;;
5355;SDS011;70449;52.486;13.386;2023-08-01T11:12:45;1.50;;;1.20;;
5355;SDS011;70449;52.486;13.386;2023-08-01T11:15:14;3.60;;;1.57;;
5355;SDS011;70449;52.486;13.386;2023-08-01T11:17:42;3.20;;;1.77;;
5355;SDS011;70449;52.486;13.386;2023-08-01T11:20:13;2.50;;;1.83;;
5355;SDS011;70449;52.486;13.386;2023-08-01T11:22:49;3.97;;;1.70;;
5355;SDS011;70449;52.486;13.386;2023-08-01T11:25:19;1.67;;;1.30;;
5355;SDS011;70449;52.486;13.386;2023-08-01T11:27:58;7.53;;;2.00;;
5355;SDS011;70449;52.486;13.386;2023-08-01T11:30:33;2.63;;;2.43;;
5355;SDS011;70449;52.486;13.386;2023-08-01T11:33:01;4.37;;;1.70;;
5355;SDS011;70449;52.486;13.386;2023-08-01T11:35:39;3.87;;;2.63;;
5355;SDS011;70449;52.486;13.386;2023-08-01T11:38:07;6.13;;;1.83;;
5355;SDS011;70449;52.486;13.386;2023-08-01T11:40:36;2.37;;;2.17;;
5355;SDS011;70449;52.486;13.386;2023-08-01T11:43:08;3.57;;;2.50;;
5355;SDS011;70449;52.486;13.386;2023-08-01T11:45:47;7.83;;;3.10;;
5355;SDS011;70449;52.486;13.386;2023-08-01T11:48:16;4.63;;;2.70;;
5355;SDS011;70449;52.486;13.386;2023-08-01T11:50:45;10.47;;;3.00;;
5355;SDS011;70449;52.486;13.386;2023-08-01T11:53:18;4.97;;;3.13;;
5355;SDS011;70449;52.486;13.386;2023-08-01T11:55:46;8.40;;;3.67;;
5355;SDS011;70449;52.486;13.386;2023-08-01T11:58:16;8.00;;;3.70;;
5355;SDS011;70449;52.486;13.386;2023-08-01T12:01:01;3.77;;;2.87;;
5355;SDS011;70449;52.486;13.386;2023-08-01T12:03:30;12.47;;;3.40;;
5355;SDS011;70449;52.486;13.386;2023-08-01T12:06:04;12.07;;;4.27;;
5355;SDS011;70449;52.486;13.386;2023-08-01T12:08:33;3.93;;;3.20;;
5355;SDS011;70449;52.486;13.386;2023-08-01T12:11:01;7.97;;;3.37;;
5355;SDS011;70449;52.486;13.386;2023-08-01T12:13:30;6.37;;;3.37;;
5355;SDS011;70449;52.486;13.386;2023-08-01T12:15:57;7.67;;;3.53;;
5355;SDS011;70449;52.486;13.386;2023-08-01T12:18:38;7.70;;;3.73;;
5355;SDS011;70449;52.486;13.386;2023-08-01T12:21:07;4.43;;;3.10;;
5355;SDS011;70449;52.486;13.386;2023-08-01T12:23:35;6.53;;;3.83;;
5355;SDS011;70449;52.486;13.386;2023-08-01T12:26:04;3.60;;;3.10;;
5355;SDS011;70449;52.486;13.386;2023-08-01T12:28:33;4.53;;;3.30;;
5355;SDS011;70449;52.486;13.386;2023-08-01T12:31:02;9.10;;;3.37;;
5355;SDS011;70449;52.486;13.386;2023-08-01T12:33:32;3.20;;;2.90;;
5355;SDS011;70449;52.486;13.386;2023-08-01T12:35:59;4.77;;;3.10;;
5355;SDS011;70449;52.486;13.386;2023-08-01T12:38:28;3.43;;;2.80;;
5355;SDS011;70449;52.486;13.386;2023-08-01T12:40:59;6.30;;;3.77;;
5355;SDS011;70449;52.486;13.386;2023-08-01T12:43:27;5.57;;;2.87;;
5355;SDS011;70449;52.486;13.386;2023-08-01T12:45:56;4.43;;;2.93;;
5355;SDS011;70449;52.486;13.386;2023-08-01T12:48:23;3.97;;;2.67;;
5355;SDS011;70449;52.486;13.386;2023-08-01T12:50:51;11.63;;;3.70;;
5355;SDS011;70449;52.486;13.386;2023-08-01T12:53:18;8.30;;;3.77;;
5355;SDS011;70449;52.486;13.386;2023-08-01T12:55:49;4.90;;;2.67;;
5355;SDS011;70449;52.486;13.386;2023-08-01T12:58:17;3.50;;;2.70;;
5355;SDS011;70449;52.486;13.386;2023-08-01T13:00:45;11.67;;;3.37;;
5355;SDS011;70449;52.486;13.386;2023-08-01T13:03:13;6.40;;;3.57;;
5355;SDS011;70449;52.486;13.386;2023-08-01T13:05:41;6.53;;;3.00;;
5355;SDS011;70449;52.486;13.386;2023-08-01T13:08:09;9.03;;;3.03;;
5355;SDS011;70449;52.486;13.386;2023-08-01T13:10:37;5.90;;;3.40;;
5355;SDS011;70449;52.486;13.386;2023-08-01T13:13:05;5.23;;;2.63;;
5355;SDS011;70449;52.486;13.386;2023-08-01T13:15:33;6.50;;;3.50;;
5355;SDS011;70449;52.486;13.386;2023-08-01T13:18:00;6.83;;;3.27;;
5355;SDS011;70449;52.486;13.386;2023-08-01T13:20:29;3.57;;;2.53;;
5355;SDS011;70449;52.486;13.386;2023-08-01T13:22:56;10.50;;;3.03;;
5355;SDS011;70449;52.486;13.386;2023-08-01T13:25:24;7.00;;;2.80;;
5355;SDS011;70449;52.486;13.386;2023-08-01T13:27:51;8.67;;;3.10;;
5355;SDS011;70449;52.486;13.386;2023-08-01T13:30:19;6.23;;;3.23;;
5355;SDS011;70449;52.486;13.386;2023-08-01T13:32:46;4.43;;;2.53;;
5355;SDS011;70449;52.486;13.386;2023-08-01T13:35:16;10.47;;;3.77;;
5355;SDS011;70449;52.486;13.386;2023-08-01T13:37:45;4.40;;;2.67;;
5355;SDS011;70449;52.486;13.386;2023-08-01T13:40:12;7.63;;;2.90;;
5355;SDS011;70449;52.486;13.386;2023-08-01T13:42:39;4.63;;;3.23;;
5355;SDS011;70449;52.486;13.386;2023-08-01T13:45:07;8.10;;;3.10;;
5355;SDS011;70449;52.486;13.386;2023-08-01T13:47:35;9.20;;;3.00;;
5355;SDS011;70449;52.486;13.386;2023-08-01T13:50:02;5.65;;;3.42;;
5355;SDS011;70449;52.486;13.386;2023-08-01T13:52:31;13.45;;;3.53;;
5355;SDS011;70449;52.486;13.386;2023-08-01T13:54:59;7.57;;;2.63;;
5355;SDS011;70449;52.486;13.386;2023-08-01T13:57:28;4.53;;;2.50;;
5355;SDS011;70449;52.486;13.386;2023-08-01T13:59:55;3.57;;;2.80;;
5355;SDS011;70449;52.486;13.386;2023-08-01T14:02:23;5.25;;;3.17;;
5355;SDS011;70449;52.486;13.386;2023-08-01T14:04:50;6.45;;;3.40;;
5355;SDS011;70449;52.486;13.386;2023-08-01T14:07:18;4.82;;;2.50;;
5355;SDS011;70449;52.486;13.386;2023-08-01T14:09:46;5.55;;;2.90;;
5355;SDS011;70449;52.486;13.386;2023-08-01T14:12:15;6.82;;;3.10;;
5355;SDS011;70449;52.486;13.386;2023-08-01T14:14:44;3.10;;;2.75;;
5355;SDS011;70449;52.486;13.386;2023-08-01T14:17:11;2.95;;;2.42;;
5355;SDS011;70449;52.486;13.386;2023-08-01T14:19:38;3.97;;;2.70;;
5355;SDS011;70449;52.486;13.386;2023-08-01T14:22:06;6.55;;;3.03;;
5355;SDS011;70449;52.486;13.386;2023-08-01T14:24:33;3.83;;;2.65;;
5355;SDS011;70449;52.486;13.386;2023-08-01T14:27:00;10.13;;;3.42;;
5355;SDS011;70449;52.486;13.386;2023-08-01T14:29:29;5.10;;;2.88;;
5355;SDS011;70449;52.486;13.386;2023-08-01T14:31:56;6.22;;;2.38;;
5355;SDS011;70449;52.486;13.386;2023-08-01T14:34:23;3.20;;;2.50;;
5355;SDS011;70449;52.486;13.386;2023-08-01T14:36:51;7.47;;;2.90;;
5355;SDS011;70449;52.486;13.386;2023-08-01T14:39:18;4.97;;;2.22;;
5355;SDS011;70449;52.486;13.386;2023-08-01T14:41:45;8.43;;;2.35;;
5355;SDS011;70449;52.486;13.386;2023-08-01T14:44:12;16.63;;;2.75;;
5355;SDS011;70449;52.486;13.386;2023-08-01T14:46:41;4.85;;;2.47;;
5355;SDS011;70449;52.486;13.386;2023-08-01T14:49:08;10.13;;;2.40;;
5355;SDS011;70449;52.486;13.386;2023-08-01T14:51:35;3.72;;;2.17;;
5355;SDS011;70449;52.486;13.386;2023-08-01T14:54:03;2.70;;;1.60;;